createdAt,value
2022-12-15T00:01:59.973Z,100026.09
2022-12-15T00:04:44.205Z,100013.06
2022-12-15T00:07:26.347Z,100004.34
2022-12-15T00:10:08.531Z,100038.97
2022-12-15T00:12:50.585Z,100038.97
2022-12-15T00:15:37.394Z,100042.50
2022-12-15T00:18:20.466Z,100039.81
2022-12-15T00:21:04.683Z,100044.66
2022-12-15T00:26:44.855Z,100045.53
2022-12-15T00:29:22.467Z,100054.06
2022-12-15T00:32:04.511Z,100053.88
2022-12-15T00:34:47.527Z,100065.84
2022-12-15T00:37:31.936Z,100056.25
2022-12-15T00:40:03.938Z,100055.28
2022-12-15T00:42:33.454Z,100036.94
2022-12-15T00:45:02.823Z,100056.16
2022-12-15T00:47:33.367Z,100048.91
2022-12-15T00:50:18.288Z,100057.19
2022-12-15T00:53:07.352Z,100039.97
2022-12-15T00:55:49.494Z,100055.56
2022-12-15T00:58:31.629Z,100066.50
2022-12-15T01:01:20.135Z,100067.38
2022-12-15T01:04:02.721Z,100062.31
2022-12-15T01:06:44.840Z,100066.38
2022-12-15T01:12:21.946Z,100066.72
2022-12-15T01:15:04.157Z,100072.78
2022-12-15T01:17:46.356Z,100076.28
2022-12-15T01:20:17.576Z,100078.00
2022-12-15T01:22:47.700Z,100078.00
2022-12-15T01:25:25.989Z,100084.88
2022-12-15T01:27:55.676Z,100085.50
2022-12-15T01:30:26.143Z,100089.00
2022-12-15T01:32:55.740Z,100092.31
2022-12-15T01:35:25.541Z,100094.84
2022-12-15T01:37:54.765Z,100086.97
2022-12-15T01:40:38.797Z,100100.63
2022-12-15T01:43:14.137Z,100096.38
2022-12-15T01:46:03.923Z,100092.03
2022-12-15T01:48:37.759Z,100102.31
2022-12-15T01:51:18.264Z,100105.47
2022-12-15T01:54:00.734Z,100103.72
2022-12-15T01:56:37.973Z,100121.00
2022-12-15T01:59:11.181Z,100127.75
2022-12-15T02:01:40.403Z,100126.16
2022-12-15T02:04:13.080Z,100110.66
2022-12-15T02:06:42.795Z,100125.22
2022-12-15T02:09:12.107Z,100104.31
2022-12-15T02:12:01.111Z,100114.72
2022-12-15T02:14:59.187Z,100122.16
2022-12-15T02:17:37.529Z,100120.84
2022-12-15T02:20:42.166Z,100125.13
2022-12-15T02:23:43.699Z,100135.56
2022-12-15T02:26:30.873Z,100136.69
2022-12-15T02:29:20.236Z,100137.16
2022-12-15T02:31:54.531Z,100140.69
2022-12-15T02:34:31.273Z,100138.56
2022-12-15T02:37:03.527Z,100104.25
2022-12-15T02:39:32.968Z,100140.09
2022-12-15T02:42:07.153Z,100142.47
2022-12-15T02:44:38.733Z,100143.00
2022-12-15T02:47:20.722Z,100136.78
2022-12-15T02:50:07.516Z,100146.34
2022-12-15T02:52:54.806Z,100139.06
2022-12-15T02:55:38.463Z,100147.28
2022-12-15T02:58:17.106Z,100149.59
2022-12-15T03:00:52.438Z,100142.22
2022-12-15T03:03:24.820Z,100156.06
2022-12-15T03:05:55.086Z,100152.78
2022-12-15T03:08:24.774Z,100159.44
2022-12-15T03:10:56.637Z,100159.38
2022-12-15T03:13:27.099Z,100162.78
2022-12-15T03:15:57.837Z,100155.56
2022-12-15T03:18:28.962Z,100153.22
2022-12-15T03:20:58.078Z,100164.94
2022-12-15T03:23:27.333Z,100161.56
2022-12-15T03:25:57.554Z,100161.38
2022-12-15T03:28:26.748Z,100169.56
2022-12-15T03:30:56.053Z,100162.59
2022-12-15T03:33:26.228Z,100140.34
2022-12-15T03:35:57.701Z,100174.72
2022-12-15T03:38:26.918Z,100177.84
2022-12-15T03:40:56.118Z,100169.16
2022-12-15T03:43:25.316Z,100178.44
2022-12-15T03:45:54.665Z,100181.47
2022-12-15T03:48:23.905Z,100167.66
2022-12-15T03:50:53.598Z,100181.38
2022-12-15T03:55:59.885Z,100194.22
2022-12-15T03:58:28.914Z,100191.22
2022-12-15T04:00:58.366Z,100193.69
2022-12-15T04:03:27.777Z,100155.31
2022-12-15T04:05:57.174Z,100167.47
2022-12-15T04:08:28.270Z,100195.13
2022-12-15T04:10:57.483Z,100194.84
2022-12-15T04:13:26.689Z,100194.72
2022-12-15T04:15:56.301Z,100197.75
2022-12-15T04:18:25.458Z,100187.81
2022-12-15T04:20:56.289Z,100161.97
2022-12-15T04:23:27.643Z,100199.53
2022-12-15T04:26:14.819Z,100203.50
2022-12-15T04:28:56.954Z,100207.13
2022-12-15T04:31:46.421Z,100207.19
2022-12-15T04:34:34.207Z,100208.88
2022-12-15T04:37:16.645Z,100200.34
2022-12-15T04:40:04.331Z,100189.72
2022-12-15T04:42:48.507Z,100213.31
2022-12-15T04:45:38.805Z,100191.66
2022-12-15T04:48:26.373Z,100211.63
2022-12-15T04:51:08.608Z,100211.63
2022-12-15T04:53:57.208Z,100222.00
2022-12-15T04:56:41.340Z,100222.06
2022-12-15T04:59:23.489Z,100232.28
2022-12-15T05:02:06.640Z,100189.72
2022-12-15T05:04:53.833Z,100229.56
2022-12-15T05:07:41.146Z,100238.06
2022-12-15T05:10:23.688Z,100232.75
2022-12-15T05:13:07.655Z,100229.97
2022-12-15T05:15:50.270Z,100234.63
2022-12-15T05:18:32.771Z,100243.03
2022-12-15T05:21:15.036Z,100246.19
2022-12-15T05:24:02.258Z,100238.28
2022-12-15T05:26:47.773Z,100221.88
2022-12-15T05:29:36.997Z,100237.22
2022-12-15T05:32:08.801Z,100246.47
2022-12-15T05:34:38.477Z,100250.84
2022-12-15T05:37:08.281Z,100241.38
2022-12-15T05:39:37.574Z,100248.59
2022-12-15T05:42:07.372Z,100247.88
2022-12-15T05:44:38.571Z,100256.94
2022-12-15T05:47:08.797Z,100253.09
2022-12-15T05:49:37.938Z,100261.19
2022-12-15T05:52:13.637Z,100265.88
2022-12-15T05:54:42.844Z,100271.44
2022-12-15T05:57:12.031Z,100268.56
2022-12-15T05:59:43.200Z,100281.75
2022-12-15T06:02:12.558Z,100279.81
2022-12-15T06:04:41.876Z,100279.56
2022-12-15T06:07:11.138Z,100272.53
2022-12-15T06:09:40.195Z,100277.38
2022-12-15T06:12:09.399Z,100265.78
2022-12-15T06:14:38.480Z,100290.75
2022-12-15T06:17:09.658Z,100288.22
2022-12-15T06:19:38.925Z,100288.06
2022-12-15T06:22:13.005Z,100295.44
2022-12-15T06:24:42.339Z,100290.03
2022-12-15T06:27:11.528Z,100298.94
2022-12-15T06:29:45.796Z,100292.16
2022-12-15T06:32:16.949Z,100290.41
2022-12-15T06:34:46.397Z,100309.22
2022-12-15T06:37:15.488Z,100303.28
2022-12-15T06:39:44.665Z,100322.16
2022-12-15T06:42:14.385Z,100330.19
2022-12-15T06:44:43.500Z,100328.22
2022-12-15T06:47:12.680Z,100315.94
2022-12-15T06:49:50.510Z,100303.75
2022-12-15T06:52:21.439Z,100331.81
2022-12-15T06:54:50.741Z,100336.25
2022-12-15T06:57:19.849Z,100331.50
2022-12-15T06:59:49.048Z,100340.00
2022-12-15T07:02:23.676Z,100345.75
2022-12-15T07:04:58.350Z,100342.63
2022-12-15T07:07:30.527Z,100352.03
2022-12-15T07:09:59.756Z,100320.66
2022-12-15T07:12:29.137Z,100347.66
2022-12-15T07:14:58.327Z,100342.63
2022-12-15T07:20:05.283Z,100353.97
2022-12-15T07:22:34.538Z,100353.25
2022-12-15T07:25:03.845Z,100341.84
2022-12-15T07:27:33.409Z,100357.19
2022-12-15T07:30:02.483Z,100355.00
2022-12-15T07:32:36.854Z,100351.97
2022-12-15T07:35:09.172Z,100350.22
2022-12-15T07:37:39.305Z,100357.44
2022-12-15T07:40:10.170Z,100360.06
2022-12-15T07:42:39.477Z,100354.56
2022-12-15T07:45:15.591Z,100360.44
2022-12-15T07:47:44.785Z,100356.06
2022-12-15T07:50:25.909Z,100344.72
2022-12-15T07:52:55.225Z,100356.06
2022-12-15T07:55:43.643Z,100348.19
2022-12-15T07:58:14.217Z,100364.25
2022-12-15T08:00:48.643Z,100365.09
2022-12-15T08:03:18.403Z,100378.16
2022-12-15T08:05:49.632Z,100365.81
2022-12-15T08:08:19.166Z,100370.16
2022-12-15T08:10:53.499Z,100357.44
2022-12-15T08:13:52.904Z,100374.16
2022-12-15T08:16:12.780Z,100369.47
2022-12-15T08:18:42.462Z,100366.31
2022-12-15T08:21:14.797Z,100356.38
2022-12-15T08:23:55.109Z,100355.59
2022-12-15T08:26:30.001Z,100352.31
2022-12-15T08:29:40.523Z,100348.59
2022-12-15T08:31:56.047Z,100354.34
2022-12-15T08:34:31.183Z,100350.47
2022-12-15T08:37:02.455Z,100359.13
2022-12-15T08:39:31.840Z,100360.00
2022-12-15T08:42:01.042Z,100317.41
2022-12-15T08:44:30.453Z,100337.38
2022-12-15T08:46:59.656Z,100362.56
2022-12-15T08:49:28.892Z,100370.22
2022-12-15T08:51:57.938Z,100367.81
2022-12-15T08:54:29.216Z,100354.81
2022-12-15T08:56:58.476Z,100364.75
2022-12-15T08:59:27.840Z,100373.22
2022-12-15T09:01:57.213Z,100356.22
2022-12-15T09:04:26.488Z,100353.78
2022-12-15T09:06:55.663Z,100351.94
2022-12-15T09:09:25.289Z,100343.63
2022-12-15T09:11:56.443Z,100358.59
2022-12-15T09:14:30.789Z,100357.63
2022-12-15T09:16:59.981Z,100364.19
2022-12-15T09:19:29.379Z,100344.16
2022-12-15T09:22:04.237Z,100357.22
2022-12-15T09:24:35.288Z,100356.50
2022-12-15T09:27:09.758Z,100358.97
2022-12-15T09:29:43.967Z,100351.22
2022-12-15T09:32:14.497Z,100348.25
2022-12-15T09:34:43.800Z,100345.47
2022-12-15T09:37:12.983Z,100348.25
2022-12-15T09:39:49.201Z,100352.53
2022-12-15T09:42:26.398Z,100340.81
2022-12-15T09:45:07.094Z,100336.13
2022-12-15T09:47:44.678Z,100338.28
2022-12-15T09:50:16.657Z,100325.00
2022-12-15T09:52:50.666Z,100311.97
2022-12-15T09:55:23.661Z,100299.16
2022-12-15T09:57:56.906Z,100291.88
2022-12-15T10:00:31.541Z,100293.53
2022-12-15T10:03:26.808Z,100304.34
2022-12-15T10:06:21.609Z,100305.63
2022-12-15T10:08:56.519Z,100301.78
2022-12-15T10:11:53.260Z,100235.56
2022-12-15T10:14:32.676Z,100285.78
2022-12-15T10:17:08.689Z,100281.38
2022-12-15T10:19:42.566Z,100275.09
2022-12-15T10:25:11.807Z,100263.34
2022-12-15T10:28:09.232Z,100265.09
2022-12-15T10:30:45.702Z,100219.94
2022-12-15T10:33:30.737Z,100261.06
2022-12-15T10:36:03.186Z,100261.31
2022-12-15T10:38:37.371Z,100258.25
2022-12-15T10:41:13.823Z,100243.47
2022-12-15T10:43:46.946Z,100274.72
2022-12-15T10:46:20.395Z,100273.41
2022-12-15T10:48:51.497Z,100275.38
2022-12-15T10:51:23.603Z,100280.63
2022-12-15T10:53:55.565Z,100283.94
2022-12-15T10:56:32.452Z,100278.50
2022-12-15T10:59:10.207Z,100282.06
2022-12-15T11:01:41.412Z,100282.06
2022-12-15T11:04:28.009Z,100282.59
2022-12-15T11:07:01.274Z,100285.84
2022-12-15T11:09:36.094Z,100295.78
2022-12-15T11:12:32.455Z,100296.16
2022-12-15T11:17:43.522Z,100300.94
2022-12-15T11:20:22.840Z,100279.81
2022-12-15T11:22:58.029Z,100310.38
2022-12-15T11:25:37.329Z,100320.50
2022-12-15T11:28:17.388Z,100316.06
2022-12-15T11:30:59.091Z,100321.81
2022-12-15T11:33:35.667Z,100319.03
2022-12-15T11:36:16.510Z,100324.50
2022-12-15T11:39:06.970Z,100296.81
2022-12-15T11:41:45.160Z,100310.50
2022-12-15T11:44:26.658Z,100306.50
2022-12-15T11:47:04.719Z,100306.16
2022-12-15T11:50:01.200Z,100300.03
2022-12-15T11:52:54.983Z,100295.25
2022-12-15T11:55:37.577Z,100303.00
2022-12-15T11:58:40.854Z,100295.25
2022-12-15T12:01:23.113Z,100294.91
2022-12-15T12:04:03.531Z,100270.34
2022-12-15T12:06:44.062Z,100293.97
2022-12-15T12:09:30.175Z,100297.25
2022-12-15T12:12:17.545Z,100255.53
2022-12-15T12:15:00.171Z,100263.19
2022-12-15T12:17:41.681Z,100283.31
2022-12-15T12:23:06.990Z,100270.50
2022-12-15T12:25:45.251Z,100272.09
2022-12-15T12:28:19.790Z,100269.41
2022-12-15T12:30:50.680Z,100261.63
2022-12-15T12:33:32.483Z,100259.91
2022-12-15T12:36:06.665Z,100230.47
2022-12-15T12:38:45.846Z,100252.25
2022-12-15T12:41:32.947Z,100250.66
2022-12-15T12:44:13.214Z,100212.63
2022-12-15T12:46:45.816Z,100236.59
2022-12-15T12:55:08.032Z,100234.00
2022-12-15T12:57:41.346Z,100226.94
2022-12-15T13:00:20.705Z,100220.28
2022-12-15T13:03:16.291Z,100209.38
2022-12-15T13:05:57.586Z,100198.59
2022-12-15T13:08:55.330Z,100200.09
2022-12-15T13:12:15.050Z,100204.16
2022-12-15T13:14:59.399Z,100194.59
2022-12-15T13:17:32.718Z,100162.22
2022-12-15T13:20:27.482Z,100184.25
2022-12-15T13:23:18.952Z,100181.66
2022-12-15T13:25:53.816Z,100178.53
2022-12-15T13:28:42.325Z,100169.56
2022-12-15T13:31:27.087Z,100165.50
2022-12-15T13:34:16.162Z,100167.38
2022-12-15T13:36:54.792Z,100167.69
2022-12-15T13:39:57.914Z,100168.09
2022-12-15T13:42:35.043Z,100164.28
2022-12-15T13:45:26.591Z,100163.91
2022-12-15T13:47:59.112Z,100155.88
2022-12-15T13:50:42.336Z,100145.44
2022-12-15T13:53:19.884Z,100148.63
2022-12-15T13:56:01.083Z,100138.09
2022-12-15T13:58:41.322Z,100135.50
2022-12-15T14:01:25.928Z,100136.84
2022-12-15T14:04:06.739Z,100127.00
2022-12-15T14:06:47.455Z,100134.84
2022-12-15T14:09:24.931Z,100139.28
2022-12-15T14:11:54.666Z,100140.25
2022-12-15T14:14:30.756Z,100140.53
2022-12-15T14:17:10.921Z,100140.03
2022-12-15T14:19:43.944Z,100141.69
2022-12-15T14:22:28.162Z,100130.63
2022-12-15T14:25:13.919Z,100125.59
2022-12-15T14:27:51.191Z,100131.50
2022-12-15T14:30:26.182Z,100115.78
2022-12-15T14:33:01.418Z,100120.94
2022-12-15T14:35:37.794Z,100101.75
2022-12-15T14:38:19.837Z,100105.03
2022-12-15T14:40:51.437Z,100109.13
2022-12-15T14:43:29.851Z,100106.88
2022-12-15T14:46:09.353Z,100115.56
2022-12-15T14:48:50.536Z,100118.16
2022-12-15T14:51:23.497Z,100111.41
2022-12-15T14:53:54.694Z,100110.03
2022-12-15T14:59:21.441Z,100112.63
2022-12-15T15:01:58.490Z,100110.91
2022-12-15T15:04:32.681Z,100108.41
2022-12-15T15:07:12.016Z,100120.09
2022-12-15T15:09:42.644Z,100112.63
2022-12-15T15:12:18.161Z,100113.63
2022-12-15T15:14:50.320Z,100112.72
2022-12-15T15:17:26.001Z,100106.91
2022-12-15T15:19:59.268Z,100101.88
2022-12-15T15:22:36.800Z,100104.31
2022-12-15T15:25:27.175Z,100118.91
2022-12-15T15:28:10.093Z,100119.59
2022-12-15T15:30:46.032Z,100115.84
2022-12-15T15:33:18.965Z,100122.97
2022-12-15T15:35:52.913Z,100115.25
2022-12-15T15:38:33.929Z,100108.41
2022-12-15T15:41:18.766Z,100109.06
2022-12-15T15:43:47.993Z,100112.38
2022-12-15T15:46:20.142Z,100115.47
2022-12-15T15:48:52.506Z,100116.06
2022-12-15T15:51:27.529Z,100115.88
2022-12-15T15:54:03.039Z,100105.44
2022-12-15T15:56:37.585Z,100083.28
2022-12-15T15:59:13.571Z,100082.69
2022-12-15T16:01:43.111Z,100067.22
2022-12-15T16:04:12.710Z,100079.22
2022-12-15T16:06:47.006Z,100074.09
2022-12-15T16:09:26.818Z,100048.44
2022-12-15T16:11:56.255Z,100061.50
2022-12-15T16:14:25.373Z,100053.94
2022-12-15T16:16:54.745Z,100046.41
2022-12-15T16:19:27.305Z,100033.91
2022-12-15T16:21:58.520Z,100015.63
2022-12-15T16:24:29.642Z,100024.69
2022-12-15T16:27:05.158Z,100035.53
2022-12-15T16:29:34.319Z,100021.00
2022-12-15T16:32:03.492Z,100015.63
2022-12-15T16:34:32.776Z,100013.00
2022-12-15T16:37:01.899Z,99999.75
2022-12-15T16:39:34.987Z,99999.91
2022-12-15T16:42:04.452Z,99978.19
2022-12-15T16:44:33.579Z,99977.59
2022-12-15T16:47:03.020Z,99977.25
2022-12-15T16:49:38.205Z,99978.31
2022-12-15T16:52:14.628Z,99950.31
2022-12-15T16:54:49.687Z,99945.28
2022-12-15T16:57:29.874Z,99967.09
2022-12-15T16:59:59.110Z,99961.97
2022-12-15T17:02:30.855Z,99965.47
2022-12-15T17:05:00.295Z,99956.44
2022-12-15T17:07:35.082Z,99954.75
2022-12-15T17:10:07.160Z,99952.53
2022-12-15T17:12:36.538Z,99948.44
2022-12-15T17:15:15.002Z,99936.78
2022-12-15T17:17:49.358Z,99941.91
2022-12-15T17:20:30.049Z,99936.94
2022-12-15T17:23:03.764Z,99925.25
2022-12-15T17:26:17.199Z,99920.28
2022-12-15T17:28:32.255Z,99913.59
2022-12-15T17:31:02.045Z,99920.47
2022-12-15T17:33:32.946Z,99899.16
2022-12-15T17:38:45.938Z,99911.06
2022-12-15T17:41:42.448Z,99892.63
2022-12-15T17:44:38.598Z,99886.03
2022-12-15T17:47:13.304Z,99872.81
2022-12-15T17:49:42.714Z,99861.94
2022-12-15T17:52:28.045Z,99849.19
2022-12-15T17:54:58.006Z,99860.56
2022-12-15T17:57:31.192Z,99849.66
2022-12-15T18:00:10.763Z,99843.06
2022-12-15T18:02:40.123Z,99836.59
2022-12-15T18:05:10.753Z,99814.88
2022-12-15T18:07:40.117Z,99820.09
2022-12-15T18:10:23.706Z,99818.50
2022-12-15T18:12:55.116Z,99803.22
2022-12-15T18:15:26.332Z,99791.81
2022-12-15T18:17:56.467Z,99760.50
2022-12-15T18:20:33.298Z,99738.91
2022-12-15T18:23:02.662Z,99764.28
2022-12-15T18:25:31.964Z,99766.09
2022-12-15T18:28:03.125Z,99752.69
2022-12-15T18:30:42.617Z,99758.91
2022-12-15T18:33:12.866Z,99756.63
2022-12-15T18:35:44.041Z,99747.47
2022-12-15T18:38:17.981Z,99730.84
2022-12-15T18:40:49.069Z,99721.75
2022-12-15T18:43:26.992Z,99730.38
2022-12-15T18:45:56.605Z,99698.75
2022-12-15T18:48:27.446Z,99718.84
2022-12-15T18:50:58.783Z,99723.25
2022-12-15T18:53:30.702Z,99707.41
2022-12-15T18:56:02.233Z,99648.09
2022-12-15T18:58:47.385Z,99718.78
2022-12-15T19:01:16.864Z,99712.31
2022-12-15T19:03:46.162Z,99679.22
2022-12-15T19:06:26.339Z,99696.69
2022-12-15T19:08:55.633Z,99707.16
2022-12-15T19:11:34.288Z,99712.47
2022-12-15T19:14:28.670Z,99693.31
2022-12-15T19:17:10.784Z,99700.31
2022-12-15T19:20:07.840Z,99687.69
2022-12-15T19:22:38.363Z,99689.78
2022-12-15T19:25:08.546Z,99681.56
2022-12-15T19:27:37.802Z,99678.34
2022-12-15T19:30:17.780Z,99665.00
2022-12-15T19:32:57.280Z,99670.41
2022-12-15T19:35:27.340Z,99664.75
2022-12-15T19:37:59.322Z,99671.69
2022-12-15T19:40:32.060Z,99670.19
2022-12-15T19:43:06.849Z,99659.41
2022-12-15T19:45:38.199Z,99657.09
2022-12-15T19:48:08.709Z,99656.41
2022-12-15T19:50:40.325Z,99658.28
2022-12-15T19:53:17.880Z,99630.56
2022-12-15T19:55:47.369Z,99644.06
2022-12-15T19:58:28.017Z,99645.00
2022-12-15T20:01:07.321Z,99640.06
2022-12-15T20:03:37.710Z,99649.47
2022-12-15T20:06:15.473Z,99626.84
2022-12-15T20:08:47.046Z,99641.28
2022-12-15T20:11:26.405Z,99636.34
2022-12-15T20:13:56.566Z,99610.53
2022-12-15T20:16:28.149Z,99639.88
2022-12-15T20:18:57.831Z,99632.41
2022-12-15T20:21:33.004Z,99614.59
2022-12-15T20:24:07.273Z,99609.53
2022-12-15T20:26:42.361Z,99619.22
2022-12-15T20:29:24.475Z,99587.31
2022-12-15T20:32:12.507Z,99620.31
2022-12-15T20:34:56.230Z,99614.41
2022-12-15T20:37:34.761Z,99582.84
2022-12-15T20:40:05.485Z,99582.06
2022-12-15T20:42:35.166Z,99605.25
2022-12-15T20:45:04.499Z,99587.97
2022-12-15T20:47:44.749Z,99598.72
2022-12-15T20:50:26.443Z,99594.59
2022-12-15T20:52:56.508Z,99590.44
2022-12-15T20:55:30.847Z,99582.00
2022-12-15T20:58:00.042Z,99587.25
2022-12-15T21:00:29.159Z,99572.06
2022-12-15T21:03:05.879Z,99566.22
2022-12-15T21:05:40.258Z,99570.63
2022-12-15T21:08:22.066Z,99565.69
2022-12-15T21:10:55.409Z,99536.53
2022-12-15T21:13:34.884Z,99554.72
2022-12-15T21:16:04.402Z,99525.44
2022-12-15T21:21:29.032Z,99556.66
2022-12-15T21:24:00.271Z,99552.53
2022-12-15T21:26:30.342Z,99539.75
2022-12-15T21:29:02.184Z,99533.25
2022-12-15T21:31:31.467Z,99544.22
2022-12-15T21:34:02.558Z,99500.22
2022-12-15T21:36:31.890Z,99540.13
2022-12-15T21:39:01.076Z,99534.25
2022-12-15T21:41:30.479Z,99519.03
2022-12-15T21:43:59.677Z,99525.16
2022-12-15T21:46:30.584Z,99516.78
2022-12-15T21:49:14.760Z,99523.47
2022-12-15T21:51:46.881Z,99510.84
2022-12-15T21:54:20.026Z,99521.09
2022-12-15T21:56:50.829Z,99483.00
2022-12-15T21:59:21.983Z,99511.72
2022-12-15T22:01:52.077Z,99519.47
2022-12-15T22:04:26.121Z,99517.00
2022-12-15T22:06:55.424Z,99506.03
2022-12-15T22:09:25.727Z,99506.88
2022-12-15T22:12:01.086Z,99504.47
2022-12-15T22:14:31.934Z,99514.66
2022-12-15T22:17:02.237Z,99518.84
2022-12-15T22:19:33.391Z,99501.94
2022-12-15T22:22:02.663Z,99504.53
2022-12-15T22:24:31.908Z,99509.59
2022-12-15T22:27:01.194Z,99509.47
2022-12-15T22:29:31.527Z,99497.72
2022-12-15T22:32:00.779Z,99511.31
2022-12-15T22:34:30.218Z,99478.81
2022-12-15T22:37:01.573Z,99497.94
2022-12-15T22:39:30.896Z,99491.66
2022-12-15T22:42:00.276Z,99507.28
2022-12-15T22:44:33.395Z,99504.75
2022-12-15T22:47:04.758Z,99479.72
2022-12-15T22:49:37.643Z,99503.16
2022-12-15T22:52:17.448Z,99494.63
2022-12-15T22:54:47.439Z,99474.03
2022-12-15T22:57:22.453Z,99500.84
2022-12-15T22:59:59.882Z,99496.41
2022-12-15T23:02:32.966Z,99498.31
2022-12-15T23:05:02.677Z,99493.88
2022-12-15T23:07:35.748Z,99497.53
2022-12-15T23:10:21.112Z,99495.84
2022-12-15T23:12:53.947Z,99504.34
2022-12-15T23:15:36.892Z,99505.34
2022-12-15T23:18:16.189Z,99495.22
2022-12-15T23:20:45.508Z,99496.94
2022-12-15T23:23:17.170Z,99487.72
2022-12-15T23:25:52.280Z,99491.09
2022-12-15T23:28:21.321Z,99491.16
2022-12-15T23:30:51.626Z,99485.13
2022-12-15T23:33:26.880Z,99480.22
2022-12-15T23:35:57.042Z,99485.41
2022-12-15T23:38:29.733Z,99492.22
2022-12-15T23:40:59.878Z,99484.56
2022-12-15T23:43:32.278Z,99486.34
2022-12-15T23:46:04.770Z,99477.13
2022-12-15T23:48:45.884Z,99480.56
2022-12-15T23:51:17.169Z,99475.50
2022-12-15T23:53:49.707Z,99471.22
2022-12-15T23:56:22.903Z,99470.44
2022-12-15T23:58:57.589Z,99451.38
